Time;durP1;ratioP1;P1;durP2;ratioP2;P2;SDS_P1;SDS_P2;PMS_P1;PMS_P2;Temp;Humidity;BMP_temperature;BMP_pressure;BME280_temperature;BME280_humidity;BME280_pressure;Samples;Min_cycle;Max_cycle;Signal;HPM_P1;HPM_P2
2021/05/01 00:01:20;;;;;;;22.52;13.20;;;;;;;9.70;61.46;101601.28;4941523;29;20080;-84
2021/05/01 00:03:47;;;;;;;19.08;11.35;;;;;;;9.66;61.68;101607.47;4935908;29;20050;-85
2021/05/01 00:06:13;;;;;;;18.75;11.95;;;;;;;9.61;61.96;101597.78;4941614;29;20110;-87
2021/05/01 00:08:40;;;;;;;19.90;13.52;;;;;;;9.62;62.09;101596.91;4937509;29;20027;-86
2021/05/01 00:11:06;;;;;;;17.20;11.85;;;;;;;9.87;60.49;101592.41;4938353;29;20069;-87
2021/05/01 00:13:34;;;;;;;18.98;12.50;;;;;;;9.76;61.30;101599.50;4942108;28;20522;-86
2021/05/01 00:16:02;;;;;;;21.15;12.25;;;;;;;9.74;61.33;101599.50;4940806;29;20058;-87
2021/05/01 00:18:29;;;;;;;20.35;11.82;;;;;;;9.75;60.76;101595.97;4938610;29;20055;-88
2021/05/01 00:20:56;;;;;;;23.35;13.27;;;;;;;9.68;61.39;101586.28;4947728;29;20055;-87
2021/05/01 00:23:23;;;;;;;23.45;12.07;;;;;;;9.64;60.90;101592.50;4942497;28;20027;-86
2021/05/01 00:25:49;;;;;;;21.58;14.25;;;;;;;9.53;61.92;101592.53;4935842;28;20087;-86
2021/05/01 00:28:16;;;;;;;26.35;13.48;;;;;;;9.59;61.56;101587.22;4935239;29;20032;-88
2021/05/01 00:30:42;;;;;;;17.65;12.93;;;;;;;9.53;61.58;101592.53;4939644;29;20068;-88
2021/05/01 00:33:09;;;;;;;17.45;13.13;;;;;;;9.48;61.45;101587.28;4940111;29;20027;-87
2021/05/01 00:35:36;;;;;;;23.00;14.88;;;;;;;9.52;61.36;101591.66;4942431;29;20035;-87
2021/05/01 00:38:03;;;;;;;26.02;14.25;;;;;;;9.48;61.43;101583.75;4940159;28;20046;-87
2021/05/01 00:40:31;;;;;;;18.95;13.57;;;;;;;9.44;61.77;101579.34;4946579;29;20032;-87
2021/05/01 00:42:58;;;;;;;22.42;15.25;;;;;;;9.42;61.81;101578.47;4938949;28;20087;-87
2021/05/01 00:45:24;;;;;;;27.42;14.73;;;;;;;9.37;61.34;101576.72;4936984;29;20051;-87
2021/05/01 00:47:51;;;;;;;30.73;15.65;;;;;;;9.36;61.75;101579.38;4936934;28;20024;-88
2021/05/01 00:50:17;;;;;;;26.23;16.27;;;;;;;9.37;61.08;101578.47;4937449;29;20028;-87
2021/05/01 00:52:44;;;;;;;26.50;15.63;;;;;;;9.31;61.37;101579.38;4940294;29;20071;-87
2021/05/01 00:55:11;;;;;;;22.20;15.25;;;;;;;9.32;61.16;101567.03;4951245;28;20060;-87
2021/05/01 00:57:39;;;;;;;25.80;16.08;;;;;;;9.23;61.24;101573.22;4941001;29;21016;-87
2021/05/01 01:00:17;;;;;;;26.95;16.33;;;;;;;9.25;61.26;101570.59;4954486;28;20041;-88
2021/05/01 01:02:44;;;;;;;28.95;18.88;;;;;;;9.19;61.76;101575.00;4953659;29;20035;-86
2021/05/01 01:05:11;;;;;;;23.70;16.67;;;;;;;9.17;61.53;101567.97;4954362;28;20114;-87
2021/05/01 01:07:37;;;;;;;29.38;18.50;;;;;;;9.11;61.37;101565.31;4949449;29;20042;-87
2021/05/01 01:10:04;;;;;;;34.40;18.95;;;;;;;9.07;61.96;101568.00;4954328;28;20039;-87
2021/05/01 01:12:31;;;;;;;32.28;19.38;;;;;;;9.04;61.92;101570.63;4954369;28;20042;-87
2021/05/01 01:14:59;;;;;;;26.63;18.77;;;;;;;8.99;61.76;101567.13;4954193;28;20026;-87
2021/05/01 01:17:26;;;;;;;29.67;18.73;;;;;;;8.98;61.70;101561.84;4954167;28;20036;-87
2021/05/01 01:19:53;;;;;;;33.58;20.63;;;;;;;8.93;61.52;101571.53;4953047;28;20023;-88
2021/05/01 01:22:19;;;;;;;32.83;20.33;;;;;;;8.89;62.28;101562.75;4953998;28;20067;-87
2021/05/01 01:24:46;;;;;;;29.30;19.98;;;;;;;8.89;61.92;101568.03;4954128;28;20122;-87
2021/05/01 01:27:13;;;;;;;27.13;18.38;;;;;;;8.86;61.91;101562.72;4953759;28;20029;-87
2021/05/01 01:29:42;;;;;;;40.00;21.10;;;;;;;8.84;62.06;101559.22;4954171;28;20037;-87
2021/05/01 01:32:10;;;;;;;36.53;21.70;;;;;;;8.78;62.17;101564.50;4954060;28;20383;-87
2021/05/01 01:34:40;;;;;;;46.50;22.65;;;;;;;8.72;62.30;101566.28;4954045;28;20031;-87
2021/05/01 01:37:07;;;;;;;30.52;20.33;;;;;;;8.69;62.37;101568.91;4954862;28;20027;-87
2021/05/01 01:39:33;;;;;;;30.98;18.23;;;;;;;8.68;62.23;101569.78;4957731;28;20027;-87
2021/05/01 01:42:00;;;;;;;28.55;18.42;;;;;;;8.63;62.04;101571.56;4957426;28;20027;-87
2021/05/01 01:44:26;;;;;;;31.85;19.13;;;;;;;8.61;61.90;101570.69;4957323;28;20019;-87
2021/05/01 01:46:54;;;;;;;30.35;19.45;;;;;;;8.58;61.91;101565.41;4982531;23;20046;-92
2021/05/01 01:49:20;;;;;;;34.10;20.02;;;;;;;8.55;62.54;101563.63;4976399;28;20102;-92
2021/05/01 01:51:47;;;;;;;26.27;17.80;;;;;;;8.53;62.51;101567.16;4976618;28;20027;-90
2021/05/01 01:54:19;;;;;;;28.65;19.23;;;;;;;8.57;62.39;101566.28;4976385;28;20486;-85
2021/05/01 01:56:59;;;;;;;30.17;17.48;;;;;;;8.55;62.48;101560.13;4975690;28;20454;-90
2021/05/01 01:59:29;;;;;;;30.88;19.95;;;;;;;8.47;62.39;101559.25;4978170;28;20486;-90
2021/05/01 02:01:58;;;;;;;26.75;17.70;;;;;;;8.42;62.28;101565.38;4976582;28;20038;-93
2021/05/01 02:04:28;;;;;;;35.03;19.58;;;;;;;8.38;62.13;101565.38;4981263;28;20035;-90
2021/05/01 02:06:55;;;;;;;25.98;16.08;;;;;;;8.34;62.32;101559.19;4978746;28;20595;-93
2021/05/01 02:09:22;;;;;;;25.33;18.10;;;;;;;8.34;62.52;101560.97;4976354;28;21968;-92
2021/05/01 02:11:48;;;;;;;25.55;16.20;;;;;;;8.30;61.95;101556.53;4976533;28;20026;-92
2021/05/01 02:14:14;;;;;;;30.60;17.13;;;;;;;8.25;62.51;101560.06;4976423;28;20022;-90
2021/05/01 02:16:41;;;;;;;25.90;17.83;;;;;;;8.24;61.97;101550.38;4976206;28;20387;-87
2021/05/01 02:19:08;;;;;;;32.20;18.55;;;;;;;8.20;61.97;101550.38;4976425;28;20113;-93
2021/05/01 02:21:34;;;;;;;30.02;17.52;;;;;;;8.14;62.88;101558.28;4975966;28;20026;-90
2021/05/01 02:24:00;;;;;;;26.85;18.70;;;;;;;8.09;62.90;101553.00;4975153;28;20394;-92
2021/05/01 02:26:27;;;;;;;27.20;17.52;;;;;;;8.09;62.92;101553.88;4974676;28;20038;-91
2021/05/01 02:28:54;;;;;;;30.83;17.27;;;;;;;8.07;62.98;101560.03;4976159;28;20546;-92
2021/05/01 02:31:23;;;;;;;27.38;19.52;;;;;;;8.06;62.41;101553.88;4974804;28;20034;-91
2021/05/01 02:33:50;;;;;;;28.65;17.55;;;;;;;8.01;62.62;101557.38;4976099;28;20078;-91
2021/05/01 02:36:16;;;;;;;32.05;20.17;;;;;;;7.98;62.18;101555.63;4976000;28;20027;-86
2021/05/01 02:38:43;;;;;;;39.78;21.08;;;;;;;7.96;62.34;101552.09;4975816;28;20027;-86
2021/05/01 02:41:09;;;;;;;42.85;21.50;;;;;;;7.93;63.05;101547.69;4975926;28;20496;-83
2021/05/01 02:43:35;;;;;;;36.55;22.30;;;;;;;7.91;63.17;101553.84;4975693;28;20331;-85
2021/05/01 02:46:02;;;;;;;32.97;19.85;;;;;;;7.89;63.22;101556.47;4975496;28;20043;-88
2021/05/01 02:48:31;;;;;;;33.22;19.83;;;;;;;7.90;63.03;101555.63;4975573;28;20449;-91
2021/05/01 02:51:00;;;;;;;31.50;20.05;;;;;;;7.86;62.80;101542.41;4975444;28;20034;-85
2021/05/01 02:53:27;;;;;;;30.58;19.73;;;;;;;7.83;63.06;101545.03;4975490;28;20081;-83
2021/05/01 02:55:54;;;;;;;32.47;20.38;;;;;;;7.78;63.13;101548.53;4975456;28;20391;-83
2021/05/01 02:58:21;;;;;;;35.72;20.23;;;;;;;7.73;63.12;101542.38;4974279;28;20453;-85
2021/05/01 03:00:47;;;;;;;35.38;22.55;;;;;;;7.70;62.98;101542.38;4975329;28;20042;-85
2021/05/01 03:03:14;;;;;;;36.05;22.58;;;;;;;7.70;63.46;101534.47;4975458;28;20038;-90
2021/05/01 03:05:40;;;;;;;36.85;22.40;;;;;;;7.69;63.30;101534.44;4974948;28;20034;-87
2021/05/01 03:08:07;;;;;;;30.60;21.25;;;;;;;7.70;63.44;101541.47;4975417;28;20031;-92
2021/05/01 03:10:33;;;;;;;29.25;19.88;;;;;;;7.68;63.36;101536.19;4974807;28;20030;-86
2021/05/01 03:13:00;;;;;;;40.28;22.63;;;;;;;7.66;63.60;101527.38;4975530;28;20023;-84
2021/05/01 03:15:26;;;;;;;37.72;23.52;;;;;;;7.63;63.25;101532.66;4975674;28;20478;-91
2021/05/01 03:17:53;;;;;;;36.45;22.95;;;;;;;7.64;63.92;101534.44;4975485;28;20030;-87
2021/05/01 03:20:19;;;;;;;35.78;22.75;;;;;;;7.63;63.44;101530.03;4975315;28;20161;-83
2021/05/01 03:22:47;;;;;;;32.97;21.95;;;;;;;7.62;63.91;101536.19;4974985;28;20031;-89
2021/05/01 03:25:16;;;;;;;33.38;20.50;;;;;;;7.61;63.81;101529.13;4973709;28;20042;-88
2021/05/01 03:27:43;;;;;;;37.55;23.27;;;;;;;7.62;64.00;101530.91;4974809;28;20035;-86
2021/05/01 03:30:13;;;;;;;39.35;21.10;;;;;;;7.61;63.88;101526.50;4973494;28;20034;-84
2021/05/01 03:32:42;;;;;;;29.60;18.95;;;;;;;7.61;63.80;101526.50;4974887;28;20026;-84
2021/05/01 03:35:10;;;;;;;36.67;21.45;;;;;;;7.61;63.95;101522.13;4974611;28;20042;-89
2021/05/01 03:37:37;;;;;;;35.20;21.40;;;;;;;7.61;63.58;101523.84;4974702;28;20506;-84
2021/05/01 03:40:05;;;;;;;35.00;21.15;;;;;;;7.60;63.95;101523.00;4974575;28;20037;-84
2021/05/01 03:42:31;;;;;;;35.63;22.10;;;;;;;7.59;63.69;101529.13;4974634;28;20027;-83
2021/05/01 03:44:57;;;;;;;39.70;22.10;;;;;;;7.59;64.03;101521.22;4974609;28;20041;-85
2021/05/01 03:47:24;;;;;;;38.35;22.77;;;;;;;7.57;64.02;101527.38;4974273;28;20030;-88
2021/05/01 03:49:50;;;;;;;37.67;21.20;;;;;;;7.55;64.16;101521.19;4974395;28;20035;-85
2021/05/01 03:52:17;;;;;;;39.03;24.08;;;;;;;7.55;63.76;101523.84;4974501;28;20118;-91
2021/05/01 03:54:44;;;;;;;35.75;19.20;;;;;;;7.55;63.63;101518.56;4974795;28;20475;-92
2021/05/01 03:57:10;;;;;;;28.17;18.52;;;;;;;7.50;63.98;101518.56;4974388;28;20035;-91
2021/05/01 03:59:37;;;;;;;31.10;19.08;;;;;;;7.45;63.90;101513.28;4974174;28;20034;-91
2021/05/01 04:02:04;;;;;;;30.38;20.17;;;;;;;7.44;63.67;101516.78;4974526;28;20030;-92
2021/05/01 04:04:30;;;;;;;28.35;18.30;;;;;;;7.39;63.72;101523.78;4974691;28;20438;-93
2021/05/01 04:06:56;;;;;;;29.45;18.08;;;;;;;7.37;63.35;101520.25;4968429;28;20035;-93
2021/05/01 04:09:23;;;;;;;25.38;18.05;;;;;;;7.35;63.53;101521.13;4970608;28;20106;-92
2021/05/01 04:11:50;;;;;;;24.40;17.00;;;;;;;7.33;63.26;101517.59;4967203;28;20522;-93
2021/05/01 04:14:16;;;;;;;31.48;20.15;;;;;;;7.31;62.96;101517.59;4970563;28;20031;-93
2021/05/01 04:16:42;;;;;;;30.77;19.88;;;;;;;7.30;63.49;101515.81;4973413;28;20497;-92
2021/05/01 04:19:08;;;;;;;32.88;20.30;;;;;;;7.29;63.73;101527.28;4974456;28;20039;-93
2021/05/01 04:21:35;;;;;;;37.25;21.48;;;;;;;7.29;63.77;101527.28;4974022;28;20481;-84
2021/05/01 04:24:01;;;;;;;30.52;18.95;;;;;;;7.29;63.68;101522.00;4974293;28;20466;-84
2021/05/01 04:26:28;;;;;;;39.95;23.80;;;;;;;7.29;63.78;101527.28;4973532;28;20077;-87
2021/05/01 04:28:56;;;;;;;30.40;19.95;;;;;;;7.26;64.43;101528.13;4974222;28;20039;-89
2021/05/01 04:31:23;;;;;;;34.03;21.80;;;;;;;7.28;63.94;101531.66;4973839;28;20027;-85
2021/05/01 04:33:49;;;;;;;41.05;23.00;;;;;;;7.28;63.98;101522.88;4973935;28;20039;-84
2021/05/01 04:36:15;;;;;;;45.60;24.60;;;;;;;7.27;64.53;101518.47;4973452;28;20039;-83
2021/05/01 04:38:41;;;;;;;37.55;23.30;;;;;;;7.29;64.35;101522.88;4973907;28;20034;-87
2021/05/01 04:41:07;;;;;;;30.17;21.75;;;;;;;7.30;64.14;101534.28;4974180;28;20027;-84
2021/05/01 04:43:34;;;;;;;36.00;21.80;;;;;;;7.32;64.17;101527.28;4973748;28;20033;-85
2021/05/01 04:46:03;;;;;;;31.77;20.63;;;;;;;7.34;64.30;101524.63;4974207;28;20031;-85
2021/05/01 04:48:29;;;;;;;37.45;23.60;;;;;;;7.32;64.62;101529.91;4962719;28;20375;-93
2021/05/01 04:50:56;;;;;;;37.30;22.73;;;;;;;7.37;64.36;101530.81;4973661;28;20060;-86
2021/05/01 04:53:23;;;;;;;41.65;24.00;;;;;;;7.40;64.66;101527.28;4973655;28;20109;-85
2021/05/01 04:55:50;;;;;;;36.67;21.92;;;;;;;7.42;64.38;101528.19;4973397;28;20119;-84
2021/05/01 04:58:16;;;;;;;38.63;23.67;;;;;;;7.45;64.25;101529.09;4973877;28;20054;-82
2021/05/01 05:00:42;;;;;;;38.55;23.98;;;;;;;7.43;64.82;101537.88;4973972;28;20023;-82
2021/05/01 05:03:09;;;;;;;37.03;24.40;;;;;;;7.47;64.80;101530.84;4973642;28;20114;-82
2021/05/01 05:05:36;;;;;;;49.15;26.70;;;;;;;7.46;64.62;101540.50;4972296;28;20035;-83
2021/05/01 05:08:02;;;;;;;36.17;23.83;;;;;;;7.57;64.53;101537.91;4973779;28;20050;-84
2021/05/01 05:10:31;;;;;;;33.70;22.02;;;;;;;7.56;64.45;101533.50;4973562;28;20027;-83
2021/05/01 05:12:58;;;;;;;39.40;24.80;;;;;;;7.57;64.80;101538.78;4975803;28;20098;-84
2021/05/01 05:15:24;;;;;;;34.22;23.88;;;;;;;7.64;64.76;101528.25;4975810;28;20027;-82
2021/05/01 05:17:50;;;;;;;36.28;22.80;;;;;;;7.66;64.81;101527.38;4977344;28;20034;-93
2021/05/01 05:20:16;;;;;;;35.88;23.15;;;;;;;7.69;64.77;101529.16;4977553;28;20066;-87
2021/05/01 05:22:44;;;;;;;38.75;23.85;;;;;;;7.70;64.85;101529.19;4977324;28;20080;-91
2021/05/01 05:25:11;;;;;;;35.15;22.08;;;;;;;7.74;64.69;101525.66;4977406;28;20027;-90
2021/05/01 05:27:37;;;;;;;33.47;21.70;;;;;;;7.76;64.97;101534.47;4976946;28;20027;-92
2021/05/01 05:30:04;;;;;;;32.60;21.85;;;;;;;7.82;65.20;101538.00;4977127;28;20073;-89
2021/05/01 05:32:31;;;;;;;34.08;20.58;;;;;;;7.85;65.03;101544.16;4977084;28;20031;-92
2021/05/01 05:34:57;;;;;;;32.28;20.15;;;;;;;7.86;65.37;101539.75;4976913;28;20023;-91
2021/05/01 05:37:23;;;;;;;41.38;21.83;;;;;;;8.00;65.49;101547.69;4977353;28;20023;-95
2021/05/01 05:39:50;;;;;;;34.03;20.85;;;;;;;8.05;65.36;101552.13;4977279;28;20061;-91
2021/05/01 05:42:18;;;;;;;32.35;20.30;;;;;;;8.09;65.29;101548.59;4977520;28;20059;-95
2021/05/01 05:44:48;;;;;;;25.52;18.13;;;;;;;8.14;65.30;101560.91;4976771;28;20116;-89
2021/05/01 05:47:15;;;;;;;32.65;21.20;;;;;;;8.25;65.62;101553.91;4976646;28;20038;-92
2021/05/01 05:49:42;;;;;;;31.25;18.83;;;;;;;8.29;65.73;101547.75;4975112;28;20513;-92
2021/05/01 05:52:08;;;;;;;27.63;17.52;;;;;;;8.38;65.66;101549.53;4976594;28;20098;-92
2021/05/01 05:54:37;;;;;;;32.50;19.33;;;;;;;8.52;65.05;101554.84;4976494;28;20053;-92
2021/05/01 05:57:08;;;;;;;26.02;17.63;;;;;;;8.60;65.40;101553.09;4975958;28;20054;-92
2021/05/01 05:59:34;;;;;;;28.45;16.45;;;;;;;8.61;65.80;101554.84;4976237;28;20031;-93
2021/05/01 06:02:03;;;;;;;32.28;19.92;;;;;;;8.75;65.49;101549.53;4976280;28;20376;-92
2021/05/01 06:04:33;;;;;;;33.08;19.15;;;;;;;8.82;64.89;101553.06;4965311;28;20038;-93
2021/05/01 06:07:10;;;;;;;25.70;16.88;;;;;;;8.79;65.66;101555.72;4968392;28;20695;-92
2021/05/01 06:09:39;;;;;;;24.63;15.20;;;;;;;8.87;65.47;101560.09;4975938;28;20049;-92
2021/05/01 06:12:08;;;;;;;25.90;16.52;;;;;;;8.95;65.58;101552.16;4975908;28;20030;-92
2021/05/01 06:14:36;;;;;;;28.50;15.55;;;;;;;9.08;65.50;101560.94;4975684;28;20099;-92
2021/05/01 06:17:03;;;;;;;23.92;14.68;;;;;;;9.18;65.44;101551.22;5001665;23;20512;-85
2021/05/01 06:19:30;;;;;;;28.30;16.02;;;;;;;9.28;64.88;101554.72;4995458;28;20470;-85
2021/05/01 06:21:58;;;;;;;19.45;11.90;;;;;;;9.30;65.80;101551.19;4995135;28;20034;-84
2021/05/01 06:24:24;;;;;;;19.27;10.85;;;;;;;9.46;65.55;101551.09;4993693;28;20486;-84
2021/05/01 06:26:51;;;;;;;16.45;9.85;;;;;;;9.57;64.90;101553.72;4982417;28;20035;-85
2021/05/01 06:29:17;;;;;;;15.73;9.77;;;;;;;9.21;66.45;101548.56;4975667;28;20081;-85
2021/05/01 06:31:44;;;;;;;17.25;9.85;;;;;;;9.35;65.95;101557.31;4975607;28;20069;-85
2021/05/01 06:34:11;;;;;;;16.40;8.50;;;;;;;9.43;65.38;101552.00;4976390;28;20027;-85
2021/05/01 06:36:37;;;;;;;17.95;9.55;;;;;;;9.63;65.64;101545.75;4976385;28;20200;-86
2021/05/01 06:39:05;;;;;;;20.70;8.73;;;;;;;9.55;65.60;101557.25;4976473;28;20453;-86
2021/05/01 06:41:39;;;;;;;16.10;7.03;;;;;;;9.74;64.73;101554.50;4976312;28;20038;-86
2021/05/01 06:44:11;;;;;;;15.55;7.30;;;;;;;9.87;63.90;101555.34;4975699;28;20026;-87
2021/05/01 06:46:41;;;;;;;20.15;8.18;;;;;;;10.01;63.96;101553.47;4976699;28;20108;-86
2021/05/01 06:49:12;;;;;;;12.80;6.40;;;;;;;10.06;63.67;101553.47;4977557;28;20083;-86
2021/05/01 06:51:40;;;;;;;13.97;6.67;;;;;;;9.99;63.42;101555.28;4982149;28;20026;-82
2021/05/01 06:54:10;;;;;;;13.38;5.75;;;;;;;9.95;62.79;101553.50;4970868;28;20024;-93
2021/05/01 06:56:40;;;;;;;10.70;5.88;;;;;;;10.14;62.42;101564.00;4971230;28;20045;-86
2021/05/01 07:01:48;;;;;;;9.15;6.30;;;;;;;9.93;62.85;101565.91;5110829;27;20415;-88
2021/05/01 07:04:16;;;;;;;12.40;6.18;;;;;;;10.19;61.60;101567.47;5101125;28;20475;-87
2021/05/01 07:06:44;;;;;;;13.55;6.22;;;;;;;10.33;61.40;101559.44;5082254;28;20040;-90
2021/05/01 07:09:10;;;;;;;12.00;6.70;;;;;;;10.52;60.87;101561.09;5078805;28;20499;-88
2021/05/01 07:11:37;;;;;;;15.80;6.88;;;;;;;10.66;60.67;101560.97;5086571;28;20039;-88
2021/05/01 07:14:03;;;;;;;14.68;6.28;;;;;;;10.75;60.15;101562.66;5099261;28;20455;-88
2021/05/01 07:16:30;;;;;;;10.60;6.00;;;;;;;10.96;59.64;101564.22;5080748;28;20090;-89
2021/05/01 07:18:57;;;;;;;11.27;5.75;;;;;;;11.12;59.55;101556.13;5079912;28;20375;-91
2021/05/01 07:21:23;;;;;;;7.68;5.50;;;;;;;11.31;58.54;101563.00;5079219;28;20033;-92
2021/05/01 07:23:49;;;;;;;12.10;5.88;;;;;;;11.28;58.45;101565.66;5093949;28;20027;-91
2021/05/01 07:26:20;;;;;;;9.93;5.90;;;;;;;11.60;57.40;101559.09;5085558;28;20028;-94
2021/05/01 07:28:50;;;;;;;13.30;5.70;;;;;;;11.65;57.06;101551.94;5083833;28;20056;-93
2021/05/01 07:31:22;;;;;;;9.20;5.28;;;;;;;11.82;56.62;101558.81;5080946;28;20064;-92
2021/05/01 07:33:53;;;;;;;12.48;6.15;;;;;;;12.03;56.59;101556.78;5077648;28;20373;-83
2021/05/01 07:36:41;;;;;;;10.63;5.28;;;;;;;12.28;55.51;101547.53;5071400;28;20025;-84
2021/05/01 07:39:10;;;;;;;10.77;5.78;;;;;;;12.31;55.59;101541.28;5071300;28;20035;-82
2021/05/01 07:41:41;;;;;;;9.60;5.40;;;;;;;12.29;55.37;101541.31;5084902;28;20541;-82
2021/05/01 07:44:08;;;;;;;11.82;6.75;;;;;;;12.26;54.80;101544.03;5095704;28;20027;-77
2021/05/01 07:46:40;;;;;;;9.02;4.88;;;;;;;12.28;54.27;101547.53;5106266;22;20388;-81
2021/05/01 07:49:08;;;;;;;7.20;3.85;;;;;;;12.25;53.08;101539.63;5070512;28;20026;-81
2021/05/01 07:51:38;;;;;;;10.75;4.10;;;;;;;12.29;52.90;101543.97;5070225;28;20036;-80
2021/05/01 07:54:05;;;;;;;11.23;4.18;;;;;;;12.29;51.95;101543.09;5068880;28;20036;-79
2021/05/01 07:56:31;;;;;;;8.75;4.13;;;;;;;12.28;50.78;101541.34;5069650;28;20341;-80
2021/05/01 07:59:00;;;;;;;8.80;4.20;;;;;;;12.43;51.58;101542.88;5069285;28;20036;-83
2021/05/01 08:01:28;;;;;;;8.52;4.60;;;;;;;12.47;51.68;101541.91;5069896;28;20033;-84
2021/05/01 08:03:55;;;;;;;8.63;3.95;;;;;;;12.34;50.31;101548.34;5069078;28;20032;-85
2021/05/01 08:06:22;;;;;;;6.47;4.10;;;;;;;12.38;50.67;101553.56;5069707;28;20040;-83
2021/05/01 08:08:48;;;;;;;5.43;2.95;;;;;;;12.16;50.36;101561.00;5057001;28;20033;-83
2021/05/01 08:11:15;;;;;;;5.97;3.10;;;;;;;12.02;49.59;101555.88;5050723;28;20037;-83
2021/05/01 08:13:41;;;;;;;7.22;3.00;;;;;;;11.91;49.41;101555.13;5046405;28;20033;-88
2021/05/01 08:16:08;;;;;;;4.28;2.70;;;;;;;11.73;49.33;101556.28;5045453;28;20025;-87
2021/05/01 08:18:35;;;;;;;9.10;2.80;;;;;;;11.90;49.00;101562.25;5041762;28;20055;-90
2021/05/01 08:21:01;;;;;;;6.85;3.53;;;;;;;11.86;49.38;101560.50;5046930;28;20032;-89
2021/05/01 08:23:32;;;;;;;9.45;3.67;;;;;;;11.94;49.78;101563.94;5050659;28;20064;-88
2021/05/01 08:26:02;;;;;;;6.07;2.65;;;;;;;11.97;49.12;101561.28;5049553;28;20075;-93
2021/05/01 08:28:28;;;;;;;5.78;2.83;;;;;;;12.17;49.25;101560.09;5051262;28;20037;-91
2021/05/01 08:30:55;;;;;;;6.82;3.58;;;;;;;12.13;49.27;101574.34;5047022;28;20043;-91
2021/05/01 08:33:21;;;;;;;8.27;2.92;;;;;;;12.42;48.67;101551.75;5045332;28;20053;-90
2021/05/01 08:35:47;;;;;;;8.32;4.32;;;;;;;12.53;48.81;101564.88;5038061;28;20025;-91
2021/05/01 08:38:14;;;;;;;10.00;2.95;;;;;;;12.65;46.97;101561.09;5039873;28;20546;-90
2021/05/01 08:40:41;;;;;;;7.20;2.88;;;;;;;12.77;47.19;101552.91;5053028;28;20480;-88
2021/05/01 08:43:08;;;;;;;8.02;3.08;;;;;;;12.87;47.12;101556.28;5044678;28;20033;-89
2021/05/01 08:45:34;;;;;;;6.53;3.70;;;;;;;12.86;47.47;101549.22;5052597;28;20494;-88
2021/05/01 08:48:02;;;;;;;12.32;3.10;;;;;;;12.85;46.52;101558.13;5046494;28;20113;-88
2021/05/01 08:53:08;;;;;;;9.07;2.97;;;;;;;13.10;46.82;101550.56;5069641;28;20421;-88
2021/05/01 08:55:38;;;;;;;7.95;2.92;;;;;;;13.06;45.78;101556.81;5072687;28;20035;-88
2021/05/01 08:58:07;;;;;;;3.83;2.50;;;;;;;13.07;45.23;101546.19;5055989;28;20056;-88
2021/05/01 09:00:36;;;;;;;9.57;3.17;;;;;;;13.05;45.40;101550.63;5066201;28;20085;-90
2021/05/01 09:03:05;;;;;;;8.45;2.90;;;;;;;13.11;44.42;101549.66;5397288;22;20139;-86
2021/05/01 09:05:33;;;;;;;4.90;2.97;;;;;;;13.24;45.00;101540.50;5057834;28;20480;-90
2021/05/01 09:08:01;;;;;;;5.55;2.83;;;;;;;13.14;45.38;101544.25;5066826;28;20105;-88
2021/05/01 09:10:37;;;;;;;5.82;2.70;;;;;;;13.26;44.38;101549.34;5051922;28;20052;-85
2021/05/01 09:13:12;;;;;;;6.07;2.40;;;;;;;13.56;43.30;101541.66;5051067;28;20480;-90
2021/05/01 09:15:41;;;;;;;8.02;2.88;;;;;;;13.69;43.94;101544.06;5046648;28;20044;-87
2021/05/01 09:18:08;;;;;;;5.60;2.70;;;;;;;14.00;43.60;101546.03;5046796;28;20029;-93
2021/05/01 09:20:35;;;;;;;3.95;2.53;;;;;;;13.76;42.69;101551.00;5053582;28;20119;-94
2021/05/01 09:23:05;;;;;;;4.68;2.38;;;;;;;13.69;41.15;101538.75;5056183;28;20474;-89
2021/05/01 09:25:45;;;;;;;4.07;2.35;;;;;;;13.69;41.50;101546.72;5060617;28;20494;-93
2021/05/01 09:28:14;;;;;;;4.95;2.65;;;;;;;13.80;41.82;101546.50;5050679;28;20431;-82
2021/05/01 09:30:44;;;;;;;6.65;2.63;;;;;;;14.12;41.90;101537.78;5050952;28;20116;-95
2021/05/01 09:36:32;;;;;;;6.53;3.10;;;;;;;14.72;43.84;101546.97;5077987;27;20953;-95
2021/05/01 09:41:54;;;;;;;3.10;2.10;;;;;;;14.08;41.35;101542.28;5057490;28;20399;-92
2021/05/01 09:44:20;;;;;;;4.05;1.92;;;;;;;14.15;41.05;101540.34;5047818;28;20116;-89
2021/05/01 09:46:49;;;;;;;3.13;1.70;;;;;;;14.18;40.96;101532.28;5045625;28;20052;-85
2021/05/01 09:54:46;;;;;;;5.38;2.95;;;;;;;14.47;41.69;101545.81;5089549;27;20391;-78
2021/05/01 09:59:55;;;;;;;2.47;2.28;;;;;;;14.66;40.25;101530.25;5065769;27;21006;-80
2021/05/01 10:02:39;;;;;;;4.30;2.22;;;;;;;14.62;40.29;101539.22;5055981;28;20060;-88
2021/05/01 10:05:12;;;;;;;4.75;2.13;;;;;;;14.66;40.40;101535.59;5052953;28;20040;-86
2021/05/01 10:07:43;;;;;;;4.15;2.45;;;;;;;14.60;40.89;101525.03;5045846;28;20117;-80
2021/05/01 10:10:09;;;;;;;5.22;2.60;;;;;;;14.32;41.35;101536.41;5056654;28;20440;-78
2021/05/01 10:15:18;;;;;;;5.20;2.30;;;;;;;14.23;41.39;101543.72;5076193;27;20469;-83
2021/05/01 10:17:46;;;;;;;4.35;2.78;;;;;;;14.37;41.28;101540.72;5027685;28;20069;-84
2021/05/01 10:20:15;;;;;;;6.90;3.10;;;;;;;14.53;41.02;101540.34;5029870;28;20496;-80
2021/05/01 10:22:44;;;;;;;8.57;2.75;;;;;;;14.63;40.78;101546.28;5028623;28;20033;-83
2021/05/01 10:25:11;;;;;;;3.63;2.45;;;;;;;14.71;40.34;101539.00;5027056;28;20127;-84
2021/05/01 10:30:44;;;;;;;4.35;2.30;;;;;;;14.63;38.36;101540.94;5088775;27;20235;-85
2021/05/01 10:33:32;;;;;;;2.85;2.35;;;;;;;14.73;38.23;101542.53;5077738;28;20102;-81
2021/05/01 10:41:55;;;;;;;3.90;2.65;;;;;;;15.00;38.72;101540.00;5065205;27;20377;-82
2021/05/01 10:44:22;;;;;;;6.82;2.60;;;;;;;15.06;39.99;101539.84;5061065;28;20025;-86
2021/05/01 10:46:48;;;;;;;3.20;2.80;;;;;;;15.15;39.69;101542.28;5056124;27;20028;-87
2021/05/01 10:49:15;;;;;;;4.85;2.67;;;;;;;15.16;39.48;101552.00;5049309;28;20104;-85
2021/05/01 10:54:28;;;;;;;6.43;2.58;;;;;;;15.22;39.24;101555.47;5084680;27;20375;-87
2021/05/01 10:56:56;;;;;;;5.78;2.85;;;;;;;15.06;39.26;101553.19;5066097;28;20029;-86
2021/05/01 10:59:27;;;;;;;7.97;2.70;;;;;;;15.02;39.83;101543.53;5061299;28;20476;-87
2021/05/01 11:04:32;;;;;;;4.20;2.80;;;;;;;14.53;40.42;101556.34;5055017;27;20859;-87
2021/05/01 11:07:18;;;;;;;5.32;2.50;;;;;;;14.45;39.42;101553.84;5035490;28;20035;-90
2021/05/01 11:09:48;;;;;;;4.28;2.90;;;;;;;14.35;40.33;101552.31;5035354;28;20489;-88
2021/05/01 11:12:18;;;;;;;4.65;2.58;;;;;;;14.52;40.48;101551.91;5032997;28;20040;-85
2021/05/01 11:14:51;;;;;;;7.47;2.60;;;;;;;14.58;40.46;101543.75;5032192;28;20037;-91
2021/05/01 11:20:15;;;;;;;8.02;3.20;;;;;;;14.51;40.35;101548.34;5148078;27;20723;-89
2021/05/01 11:22:43;;;;;;;6.40;2.80;;;;;;;14.66;40.11;101543.59;5136483;27;20027;-91
2021/05/01 11:25:12;;;;;;;4.20;3.13;;;;;;;14.80;41.07;101538.75;5141097;27;20023;-87
2021/05/01 11:27:40;;;;;;;7.10;3.70;;;;;;;14.82;40.03;101544.94;5121127;27;20032;-91
2021/05/01 11:30:09;;;;;;;4.38;2.80;;;;;;;15.03;39.71;101539.94;5120139;27;20762;-93
2021/05/01 11:32:36;;;;;;;7.63;2.60;;;;;;;15.23;39.62;101536.72;5116921;28;20027;-93
2021/05/01 11:37:52;;;;;;;4.47;2.53;;;;;;;14.91;39.01;101546.47;5121073;27;20358;-94
2021/05/01 11:40:25;;;;;;;5.93;2.72;;;;;;;14.86;38.34;101546.59;5122165;28;20027;-89
2021/05/01 11:42:54;;;;;;;8.77;3.40;;;;;;;14.60;38.75;101547.25;5115093;27;20474;-92
2021/05/01 11:48:30;;;;;;;5.80;3.87;;;;;;;14.53;40.15;101548.34;4990417;28;20762;-87
2021/05/01 11:50:58;;;;;;;9.45;4.45;;;;;;;14.87;39.48;101540.34;4980012;28;20031;-87
2021/05/01 11:53:37;;;;;;;7.78;4.03;;;;;;;15.22;38.27;101550.97;5001691;28;20030;-87
2021/05/01 11:59:09;;;;;;;3.92;2.90;;;;;;;15.71;36.72;101537.13;5055893;28;20358;-90
2021/05/01 12:10:21;;;;;;;7.28;3.30;;;;;;;16.09;36.47;101522.56;5077914;27;20452;-90
2021/05/01 12:15:36;;;;;;;4.57;2.25;;;;;;;15.79;37.05;101535.94;5063286;28;20410;-93
2021/05/01 12:18:03;;;;;;;3.85;2.10;;;;;;;15.58;37.72;101525.94;5045935;28;20108;-90
2021/05/01 12:20:33;;;;;;;4.65;2.50;;;;;;;15.62;38.48;101527.59;5040027;28;20029;-92
2021/05/01 12:23:09;;;;;;;6.50;2.30;;;;;;;15.96;38.64;101523.88;5046952;28;20017;-91